createdAt,value
2019-06-26T00:02:03.447Z,97811.73
2019-06-26T00:04:32.847Z,97810.80
2019-06-26T00:07:02.287Z,97808.83
2019-06-26T00:09:31.737Z,97809.23
2019-06-26T00:12:01.082Z,97806.95
2019-06-26T00:14:30.472Z,97810.06
2019-06-26T00:16:59.823Z,97817.53
2019-06-26T00:19:29.278Z,97814.93
2019-06-26T00:21:58.635Z,97816.06
2019-06-26T00:24:28.011Z,97819.48
2019-06-26T00:26:57.469Z,97813.25
2019-06-26T00:29:26.836Z,97815.11
2019-06-26T00:31:56.192Z,97816.34
2019-06-26T00:34:25.577Z,97810.64
2019-06-26T00:36:55.019Z,97812.70
2019-06-26T00:39:24.405Z,97810.22
2019-06-26T00:41:53.778Z,97814.98
2019-06-26T00:44:23.210Z,97811.86
2019-06-26T00:46:52.629Z,97810.80
2019-06-26T00:49:21.990Z,97811.50
2019-06-26T00:51:51.372Z,97797.81
2019-06-26T00:54:20.852Z,97806.43
2019-06-26T00:56:50.296Z,97804.34
2019-06-26T00:59:19.673Z,97800.57
2019-06-26T01:01:49.061Z,97800.57
2019-06-26T01:04:22.999Z,97803.23
2019-06-26T01:06:52.427Z,97802.66
2019-06-26T01:09:21.927Z,97806.91
2019-06-26T01:11:51.289Z,97809.40
2019-06-26T01:14:20.683Z,97803.23
2019-06-26T01:16:50.055Z,97803.23
2019-06-26T01:19:19.484Z,97805.18
2019-06-26T01:21:48.815Z,97801.55
2019-06-26T01:24:18.174Z,97802.57
2019-06-26T01:26:47.659Z,97802.57
2019-06-26T01:29:17.036Z,97798.38
2019-06-26T01:31:46.365Z,97804.98
2019-06-26T01:34:15.750Z,97804.98
2019-06-26T01:36:45.134Z,97810.45
2019-06-26T01:39:14.502Z,97813.22
2019-06-26T01:41:43.857Z,97811.24
2019-06-26T01:44:15.206Z,97807.91
2019-06-26T01:46:44.405Z,97810.80
2019-06-26T01:49:13.780Z,97813.93
2019-06-26T01:51:43.157Z,97813.93
2019-06-26T01:54:12.527Z,97817.26
2019-06-26T01:56:41.935Z,97813.05
2019-06-26T01:59:11.408Z,97811.91
2019-06-26T02:01:40.940Z,97824.33
2019-06-26T02:04:15.509Z,97827.06
2019-06-26T02:06:43.701Z,97815.75
2019-06-26T02:09:13.285Z,97823.84
2019-06-26T02:11:42.907Z,97814.94
2019-06-26T02:14:12.526Z,97821.77
2019-06-26T02:16:42.039Z,97818.52
2019-06-26T02:19:12.896Z,97821.47
2019-06-26T02:21:42.558Z,97822.42
2019-06-26T02:24:12.179Z,97822.28
2019-06-26T02:26:41.773Z,97815.14
2019-06-26T02:29:11.337Z,97815.14
2019-06-26T02:31:40.874Z,97822.73
2019-06-26T02:34:10.430Z,97827.34
2019-06-26T02:36:40.074Z,97827.34
2019-06-26T02:39:09.653Z,97827.05
2019-06-26T02:41:39.264Z,97824.20
2019-06-26T02:44:08.768Z,97822.42
2019-06-26T02:46:38.359Z,97822.42
2019-06-26T02:49:08.011Z,97820.23
2019-06-26T02:51:37.609Z,97821.57
2019-06-26T02:54:07.181Z,97821.57
2019-06-26T02:56:36.714Z,97811.59
2019-06-26T02:59:06.326Z,97811.59
2019-06-26T03:01:35.864Z,97813.13
2019-06-26T03:04:05.433Z,97827.87
2019-06-26T03:06:34.964Z,97827.24
2019-06-26T03:09:06.164Z,97831.34
2019-06-26T03:11:35.715Z,97831.47
2019-06-26T03:14:05.355Z,97834.92
2019-06-26T03:16:35.238Z,97834.35
2019-06-26T03:19:04.821Z,97836.94
2019-06-26T03:21:34.473Z,97836.66
2019-06-26T03:24:04.093Z,97842.67
2019-06-26T03:26:33.581Z,97837.71
2019-06-26T03:29:03.158Z,97837.71
2019-06-26T03:31:32.661Z,97838.73
2019-06-26T03:34:02.244Z,97837.39
2019-06-26T03:36:31.718Z,97848.33
2019-06-26T03:39:01.272Z,97841.55
2019-06-26T03:41:30.765Z,97843.33
2019-06-26T03:44:00.252Z,97848.00
2019-06-26T03:46:29.752Z,97850.64
2019-06-26T03:48:59.211Z,97840.59
2019-06-26T03:51:28.708Z,97843.85
2019-06-26T03:53:58.175Z,97849.28
2019-06-26T03:56:27.753Z,97849.28
2019-06-26T03:58:57.279Z,97846.21
2019-06-26T04:01:26.779Z,97846.21
2019-06-26T04:03:57.499Z,97853.84
2019-06-26T04:06:27.271Z,97859.53
2019-06-26T04:08:56.834Z,97865.13
2019-06-26T04:11:26.452Z,97864.45
2019-06-26T04:13:56.019Z,97857.09
2019-06-26T04:16:25.520Z,97855.61
2019-06-26T04:18:55.116Z,97852.69
2019-06-26T04:21:24.672Z,97846.90
2019-06-26T04:23:54.187Z,97853.23
2019-06-26T04:26:23.722Z,97847.44
2019-06-26T04:28:53.205Z,97859.63
2019-06-26T04:31:22.881Z,97850.73
2019-06-26T04:33:52.418Z,97853.10
2019-06-26T04:36:21.974Z,97856.56
2019-06-26T04:38:51.565Z,97857.39
2019-06-26T04:41:21.122Z,97864.68
2019-06-26T04:43:50.647Z,97862.96
2019-06-26T04:46:20.307Z,97867.05
2019-06-26T04:48:49.807Z,97868.10
2019-06-26T04:51:19.413Z,97866.86
2019-06-26T04:53:48.977Z,97867.63
2019-06-26T04:56:18.423Z,97871.34
2019-06-26T04:58:47.950Z,97868.93
2019-06-26T05:01:17.551Z,97877.09
2019-06-26T05:03:47.087Z,97877.67
2019-06-26T05:06:16.597Z,97883.48
2019-06-26T05:08:46.152Z,97875.69
2019-06-26T05:11:16.013Z,97878.64
2019-06-26T05:13:45.563Z,97886.64
2019-06-26T05:16:19.269Z,97881.27
2019-06-26T05:18:46.399Z,97882.48
2019-06-26T05:21:15.855Z,97882.55
2019-06-26T05:23:45.311Z,97877.23
2019-06-26T05:26:15.055Z,97887.98
2019-06-26T05:28:44.675Z,97888.30
2019-06-26T05:31:14.210Z,97885.11
2019-06-26T05:33:43.748Z,97872.89
2019-06-26T05:36:13.254Z,97894.52
2019-06-26T05:38:42.878Z,97894.52
2019-06-26T05:41:12.343Z,97889.73
2019-06-26T05:43:42.092Z,97891.52
2019-06-26T05:46:11.594Z,97898.88
2019-06-26T05:48:41.064Z,97886.34
2019-06-26T05:51:10.600Z,97887.67
2019-06-26T05:53:40.153Z,97902.41
2019-06-26T05:56:09.687Z,97898.53
2019-06-26T05:58:39.172Z,97898.85
2019-06-26T06:01:08.702Z,97906.22
2019-06-26T06:03:38.188Z,97905.19
2019-06-26T06:06:07.803Z,97906.34
2019-06-26T06:08:37.273Z,97907.23
2019-06-26T06:11:06.749Z,97909.86
2019-06-26T06:13:36.317Z,97909.16
2019-06-26T06:16:06.588Z,97908.97
2019-06-26T06:18:36.396Z,97902.69
2019-06-26T06:21:05.883Z,97909.29
2019-06-26T06:23:35.571Z,97913.13
2019-06-26T06:26:05.138Z,97912.11
2019-06-26T06:28:34.725Z,97912.94
2019-06-26T06:31:04.279Z,97914.41
2019-06-26T06:33:33.827Z,97915.95
2019-06-26T06:36:03.409Z,97905.39
2019-06-26T06:38:32.876Z,97920.11
2019-06-26T06:41:02.466Z,97922.23
2019-06-26T06:43:31.999Z,97930.61
2019-06-26T06:46:01.513Z,97924.41
2019-06-26T06:48:31.026Z,97926.20
2019-06-26T06:51:00.629Z,97934.01
2019-06-26T06:53:30.322Z,97931.00
2019-06-26T06:55:59.855Z,97931.00
2019-06-26T06:58:30.389Z,97930.81
2019-06-26T07:01:00.031Z,97936.00
2019-06-26T07:03:29.549Z,97935.48
2019-06-26T07:05:59.128Z,97937.09
2019-06-26T07:08:28.709Z,97934.62
2019-06-26T07:10:58.243Z,97937.44
2019-06-26T07:13:28.037Z,97941.47
2019-06-26T07:16:04.898Z,97946.47
2019-06-26T07:18:34.333Z,97940.38
2019-06-26T07:21:03.871Z,97939.61
2019-06-26T07:23:33.417Z,97944.60
2019-06-26T07:26:03.038Z,97944.09
2019-06-26T07:28:32.507Z,97944.30
2019-06-26T07:31:02.088Z,97944.30
2019-06-26T07:33:31.550Z,97955.51
2019-06-26T07:36:01.099Z,97946.22
2019-06-26T07:38:30.558Z,97951.92
2019-06-26T07:41:00.094Z,97946.66
2019-06-26T07:43:35.798Z,97945.76
2019-06-26T07:46:05.471Z,97949.53
2019-06-26T07:48:34.884Z,97949.45
2019-06-26T07:51:04.460Z,97947.72
2019-06-26T07:53:33.924Z,97957.00
2019-06-26T07:56:03.511Z,97957.00
2019-06-26T07:58:33.009Z,97946.42
2019-06-26T08:01:02.845Z,97954.98
2019-06-26T08:03:32.332Z,97954.98
2019-06-26T08:06:02.087Z,97958.72
2019-06-26T08:08:31.660Z,97951.91
2019-06-26T08:11:01.158Z,97954.73
2019-06-26T08:13:30.735Z,97957.89
2019-06-26T08:16:00.311Z,97953.25
2019-06-26T08:18:29.938Z,97957.02
2019-06-26T08:21:12.992Z,97951.87
2019-06-26T08:23:42.811Z,97949.41
2019-06-26T08:26:12.422Z,97954.72
2019-06-26T08:28:41.857Z,97957.84
2019-06-26T08:31:11.414Z,97957.56
2019-06-26T08:33:40.971Z,97956.65
2019-06-26T08:36:10.602Z,97955.10
2019-06-26T08:38:41.752Z,97959.06
2019-06-26T08:41:11.201Z,97960.95
2019-06-26T08:43:40.854Z,97959.20
2019-06-26T08:46:10.429Z,97960.98
2019-06-26T08:48:40.808Z,97956.02
2019-06-26T08:51:10.655Z,97965.88
2019-06-26T08:53:40.139Z,97962.27
2019-06-26T08:56:09.599Z,97963.75
2019-06-26T08:58:39.238Z,97966.05
2019-06-26T09:01:08.672Z,97964.29
2019-06-26T09:03:41.866Z,97968.25
2019-06-26T09:06:09.845Z,97968.88
2019-06-26T09:08:39.409Z,97975.32
2019-06-26T09:11:08.977Z,97970.15
2019-06-26T09:13:38.514Z,97972.03
2019-06-26T09:16:07.986Z,97971.11
2019-06-26T09:18:37.447Z,97970.29
2019-06-26T09:21:06.962Z,97962.09
2019-06-26T09:23:36.493Z,97962.97
2019-06-26T09:26:06.009Z,97961.11
2019-06-26T09:28:35.608Z,97966.09
2019-06-26T09:31:05.272Z,97957.87
2019-06-26T09:33:34.668Z,97967.22
2019-06-26T09:36:06.879Z,97960.78
2019-06-26T09:38:35.443Z,97964.73
2019-06-26T09:41:05.036Z,97962.76
2019-06-26T09:43:34.594Z,97960.99
2019-06-26T09:46:04.056Z,97962.65
2019-06-26T09:48:33.650Z,97958.91
2019-06-26T09:51:03.116Z,97958.31
2019-06-26T09:53:46.690Z,97956.02
2019-06-26T09:56:04.193Z,97958.49
2019-06-26T09:58:33.743Z,97961.19
2019-06-26T10:01:03.358Z,97951.68
2019-06-26T10:03:32.900Z,97964.41
2019-06-26T10:06:02.591Z,97961.70
2019-06-26T10:08:32.036Z,97963.79
2019-06-26T10:11:01.710Z,97955.68
2019-06-26T10:13:31.360Z,97953.39
2019-06-26T10:16:00.894Z,97958.68
2019-06-26T10:18:30.390Z,97956.97
2019-06-26T10:20:59.983Z,97961.42
2019-06-26T10:23:29.483Z,97956.94
2019-06-26T10:25:59.053Z,97954.81
2019-06-26T10:28:28.618Z,97952.45
2019-06-26T10:30:58.281Z,97954.72
2019-06-26T10:33:27.814Z,97954.20
2019-06-26T10:38:33.837Z,97954.20
2019-06-26T10:41:03.477Z,97955.33
2019-06-26T10:43:33.106Z,97956.77
2019-06-26T10:46:02.732Z,97954.81
2019-06-26T10:48:32.712Z,97951.05
2019-06-26T10:51:02.322Z,97951.63
2019-06-26T10:53:31.835Z,97948.27
2019-06-26T10:56:01.466Z,97953.33
2019-06-26T10:58:30.967Z,97942.02
2019-06-26T11:01:00.617Z,97944.72
2019-06-26T11:03:30.225Z,97948.43
2019-06-26T11:05:59.910Z,97948.69
2019-06-26T11:08:29.445Z,97948.99
2019-06-26T11:10:58.987Z,97943.06
2019-06-26T11:13:28.593Z,97938.73
2019-06-26T11:15:58.389Z,97940.95
2019-06-26T11:18:28.023Z,97946.01
2019-06-26T11:20:57.634Z,97943.23
2019-06-26T11:23:27.205Z,97937.98
2019-06-26T11:25:56.732Z,97934.77
2019-06-26T11:28:26.270Z,97932.09
2019-06-26T11:30:55.861Z,97931.34
2019-06-26T11:33:25.357Z,97928.78
2019-06-26T11:35:54.951Z,97929.16
2019-06-26T11:38:24.456Z,97926.38
2019-06-26T11:40:54.043Z,97921.73
2019-06-26T11:43:23.731Z,97925.50
2019-06-26T11:45:53.478Z,97918.79
2019-06-26T11:48:23.126Z,97919.16
2019-06-26T11:50:52.735Z,97917.13
2019-06-26T11:53:22.309Z,97910.97
2019-06-26T11:55:51.900Z,97916.81
2019-06-26T11:58:21.516Z,97917.25
2019-06-26T12:00:51.066Z,97911.98
2019-06-26T12:03:20.681Z,97918.77
2019-06-26T12:05:50.344Z,97910.17
2019-06-26T12:08:20.722Z,97911.59
2019-06-26T12:10:50.288Z,97902.07
2019-06-26T12:13:19.899Z,97901.81
2019-06-26T12:15:49.524Z,97898.63
2019-06-26T12:18:19.601Z,97898.13
2019-06-26T12:20:51.070Z,97899.27
2019-06-26T12:23:20.670Z,97900.27
2019-06-26T12:25:50.842Z,97900.76
2019-06-26T12:28:20.400Z,97893.27
2019-06-26T12:30:50.026Z,97890.84
2019-06-26T12:33:19.790Z,97884.57
2019-06-26T12:35:49.492Z,97895.50
2019-06-26T12:38:19.216Z,97887.84
2019-06-26T12:40:49.036Z,97889.84
2019-06-26T12:43:19.530Z,97886.92
2019-06-26T12:45:49.086Z,97881.52
2019-06-26T12:48:18.763Z,97884.21
2019-06-26T12:50:48.413Z,97875.58
2019-06-26T12:53:18.091Z,97878.59
2019-06-26T12:55:48.516Z,97881.03
2019-06-26T12:58:20.167Z,97865.73
2019-06-26T13:00:49.904Z,97878.12
2019-06-26T13:03:19.627Z,97872.18
2019-06-26T13:05:49.342Z,97871.09
2019-06-26T13:08:19.426Z,97873.27
2019-06-26T13:10:50.479Z,97867.86
2019-06-26T13:13:20.403Z,97872.22
2019-06-26T13:15:51.067Z,97870.16
2019-06-26T13:18:21.039Z,97872.39
2019-06-26T13:20:53.252Z,97870.56
2019-06-26T13:23:22.247Z,97868.78
2019-06-26T13:25:51.886Z,97858.50
2019-06-26T13:28:22.068Z,97868.13
2019-06-26T13:30:53.484Z,97865.70
2019-06-26T13:33:23.187Z,97862.98
2019-06-26T13:35:52.756Z,97861.91
2019-06-26T13:38:22.387Z,97860.80
2019-06-26T13:40:51.924Z,97867.80
2019-06-26T13:43:22.066Z,97862.47
2019-06-26T13:45:51.654Z,97861.64
2019-06-26T13:48:21.414Z,97859.64
2019-06-26T13:50:51.138Z,97857.02
2019-06-26T13:53:20.750Z,97859.02
2019-06-26T13:55:51.129Z,97858.05
2019-06-26T13:58:21.440Z,97858.27
2019-06-26T14:00:51.747Z,97856.02
2019-06-26T14:03:21.966Z,97855.34
2019-06-26T14:05:51.574Z,97854.74
2019-06-26T14:08:21.236Z,97847.45
2019-06-26T14:10:50.808Z,97855.51
2019-06-26T14:13:21.105Z,97846.42
2019-06-26T14:15:50.819Z,97841.27
2019-06-26T14:18:20.442Z,97840.34
2019-06-26T14:20:51.026Z,97845.09
2019-06-26T14:23:20.707Z,97835.05
2019-06-26T14:25:50.283Z,97838.19
2019-06-26T14:28:20.052Z,97838.48
2019-06-26T14:30:50.271Z,97838.93
2019-06-26T14:33:19.908Z,97840.27
2019-06-26T14:35:50.254Z,97834.98
2019-06-26T14:38:20.437Z,97834.08
2019-06-26T14:40:50.071Z,97832.64
2019-06-26T14:43:19.704Z,97837.02
2019-06-26T14:45:49.243Z,97825.70
2019-06-26T14:48:19.584Z,97831.32
2019-06-26T14:50:49.221Z,97825.55
2019-06-26T14:53:18.902Z,97824.29
2019-06-26T14:55:48.545Z,97821.56
2019-06-26T14:58:18.181Z,97820.00
2019-06-26T15:00:48.252Z,97818.96
2019-06-26T15:03:17.945Z,97813.73
2019-06-26T15:05:48.233Z,97811.45
2019-06-26T15:08:17.786Z,97811.38
2019-06-26T15:10:48.069Z,97807.58
2019-06-26T15:13:17.679Z,97800.72
2019-06-26T15:15:47.901Z,97799.03
2019-06-26T15:18:17.826Z,97796.72
2019-06-26T15:20:47.433Z,97788.33
2019-06-26T15:23:17.210Z,97795.72
2019-06-26T15:25:47.464Z,97795.22
2019-06-26T15:28:17.759Z,97795.00
2019-06-26T15:30:47.493Z,97798.23
2019-06-26T15:33:17.161Z,97792.95
2019-06-26T15:35:46.850Z,97790.34
2019-06-26T15:38:16.470Z,97792.38
2019-06-26T15:40:46.026Z,97785.09
2019-06-26T15:43:15.623Z,97783.87
2019-06-26T15:45:45.261Z,97781.82
2019-06-26T15:48:14.787Z,97780.70
2019-06-26T15:50:44.508Z,97780.44
2019-06-26T15:53:14.034Z,97771.66
2019-06-26T15:55:43.690Z,97778.80
2019-06-26T15:58:13.811Z,97778.88
2019-06-26T16:00:43.491Z,97772.69
2019-06-26T16:03:13.211Z,97774.23
2019-06-26T16:05:42.730Z,97772.58
2019-06-26T16:08:12.262Z,97772.47
2019-06-26T16:10:41.796Z,97766.51
2019-06-26T16:13:11.365Z,97765.23
2019-06-26T16:15:41.065Z,97765.66
2019-06-26T16:18:22.475Z,97769.03
2019-06-26T16:20:52.029Z,97765.96
2019-06-26T16:23:21.612Z,97765.99
2019-06-26T16:25:51.846Z,97761.27
2019-06-26T16:28:21.402Z,97761.16
2019-06-26T16:30:51.647Z,97762.39
2019-06-26T16:33:21.918Z,97762.89
2019-06-26T16:35:51.559Z,97763.01
2019-06-26T16:38:22.476Z,97763.01
2019-06-26T16:40:52.157Z,97764.14
2019-06-26T16:43:21.728Z,97762.52
2019-06-26T16:45:52.059Z,97762.95
2019-06-26T16:48:21.583Z,97760.20
2019-06-26T16:50:51.107Z,97763.16
2019-06-26T16:53:21.260Z,97762.09
2019-06-26T16:55:51.701Z,97757.30
2019-06-26T16:58:21.259Z,97756.55
2019-06-26T17:00:51.634Z,97756.75
2019-06-26T17:03:21.392Z,97755.93
2019-06-26T17:05:51.068Z,97758.41
2019-06-26T17:08:40.301Z,97747.73
2019-06-26T17:11:10.461Z,97751.25
2019-06-26T17:13:40.155Z,97749.42
2019-06-26T17:16:10.205Z,97744.11
2019-06-26T17:18:40.015Z,97750.84
2019-06-26T17:21:10.171Z,97746.22
2019-06-26T17:23:39.705Z,97748.34
2019-06-26T17:26:09.341Z,97747.64
2019-06-26T17:28:38.854Z,97758.09
2019-06-26T17:31:08.512Z,97755.02
2019-06-26T17:33:51.505Z,97750.45
2019-06-26T17:36:11.989Z,97758.33
2019-06-26T17:38:43.807Z,97756.81
2019-06-26T17:41:14.073Z,97752.05
2019-06-26T17:43:44.289Z,97752.23
2019-06-26T17:46:14.571Z,97748.69
2019-06-26T17:48:44.731Z,97753.03
2019-06-26T17:51:14.914Z,97752.38
2019-06-26T17:53:44.554Z,97749.99
2019-06-26T17:56:14.731Z,97750.48
2019-06-26T17:58:44.211Z,97750.78
2019-06-26T18:01:13.803Z,97751.78
2019-06-26T18:03:43.268Z,97751.02
2019-06-26T18:06:12.872Z,97756.19
2019-06-26T18:08:42.993Z,97756.39
2019-06-26T18:11:13.220Z,97757.21
2019-06-26T18:13:42.887Z,97756.30
2019-06-26T18:16:13.080Z,97759.84
2019-06-26T18:18:42.651Z,97756.80
2019-06-26T18:21:15.606Z,97757.88
2019-06-26T18:23:45.699Z,97761.66
2019-06-26T18:26:15.287Z,97755.05
2019-06-26T18:28:45.454Z,97763.80
2019-06-26T18:31:15.719Z,97762.72
2019-06-26T18:33:45.983Z,97766.39
2019-06-26T18:36:18.437Z,97764.84
2019-06-26T18:38:48.597Z,97768.00
2019-06-26T18:41:18.728Z,97758.21
2019-06-26T18:43:48.262Z,97768.22
2019-06-26T18:46:18.479Z,97760.04
2019-06-26T18:48:48.130Z,97768.72
2019-06-26T18:51:17.601Z,97768.68
2019-06-26T18:53:53.479Z,97772.12
2019-06-26T18:56:19.079Z,97773.22
2019-06-26T18:58:48.754Z,97767.78
2019-06-26T19:01:18.246Z,97773.75
2019-06-26T19:03:48.323Z,97774.78
2019-06-26T19:06:18.441Z,97768.47
2019-06-26T19:08:47.998Z,97776.44
2019-06-26T19:11:17.763Z,97773.84
2019-06-26T19:13:47.906Z,97770.53
2019-06-26T19:16:18.160Z,97773.80
2019-06-26T19:18:47.793Z,97774.48
2019-06-26T19:21:17.443Z,97774.53
2019-06-26T19:23:47.029Z,97769.83
2019-06-26T19:26:16.690Z,97769.42
2019-06-26T19:28:46.283Z,97774.08
2019-06-26T19:31:15.835Z,97775.55
2019-06-26T19:33:45.746Z,97773.66
2019-06-26T19:36:15.551Z,97777.15
2019-06-26T19:38:45.734Z,97776.56
2019-06-26T19:41:15.375Z,97775.91
2019-06-26T19:43:44.937Z,97781.48
2019-06-26T19:46:14.485Z,97781.39
2019-06-26T19:48:44.155Z,97786.34
2019-06-26T19:51:13.799Z,97778.67
2019-06-26T19:53:43.445Z,97775.66
2019-06-26T19:56:13.005Z,97777.75
2019-06-26T19:58:42.546Z,97777.45
2019-06-26T20:01:12.140Z,97783.67
2019-06-26T20:03:41.721Z,97780.03
2019-06-26T20:06:11.299Z,97782.28
2019-06-26T20:08:52.234Z,97784.47
2019-06-26T20:11:12.117Z,97789.31
2019-06-26T20:13:41.719Z,97789.75
2019-06-26T20:16:11.234Z,97784.21
2019-06-26T20:18:40.840Z,97783.33
2019-06-26T20:21:10.479Z,97788.19
2019-06-26T20:23:40.156Z,97780.70
2019-06-26T20:26:09.747Z,97778.68
2019-06-26T20:28:39.333Z,97780.81
2019-06-26T20:31:09.128Z,97777.74
2019-06-26T20:33:38.615Z,97777.10
2019-06-26T20:36:08.305Z,97774.25
2019-06-26T20:38:37.899Z,97783.17
2019-06-26T20:41:09.351Z,97788.25
2019-06-26T20:43:38.912Z,97783.30
2019-06-26T20:46:08.535Z,97793.28
2019-06-26T20:48:38.109Z,97790.69
2019-06-26T20:51:07.669Z,97786.80
2019-06-26T20:53:37.235Z,97790.81
2019-06-26T20:56:06.878Z,97796.13
2019-06-26T20:58:36.603Z,97787.98
2019-06-26T21:01:06.153Z,97784.38
2019-06-26T21:03:35.706Z,97786.80
2019-06-26T21:06:05.270Z,97785.86
2019-06-26T21:08:34.831Z,97783.37
2019-06-26T21:11:04.489Z,97788.98
2019-06-26T21:13:34.109Z,97795.65
2019-06-26T21:16:04.057Z,97791.25
2019-06-26T21:18:33.608Z,97798.80
2019-06-26T21:21:03.162Z,97796.00
2019-06-26T21:23:32.712Z,97803.78
2019-06-26T21:26:02.200Z,97802.89
2019-06-26T21:28:31.789Z,97794.39
2019-06-26T21:31:01.414Z,97800.22
2019-06-26T21:33:30.939Z,97793.91
2019-06-26T21:36:00.580Z,97803.87
2019-06-26T21:38:30.133Z,97791.59
2019-06-26T21:40:59.795Z,97792.06
2019-06-26T21:43:29.367Z,97792.52
2019-06-26T21:45:58.987Z,97787.73
2019-06-26T21:48:28.553Z,97791.86
2019-06-26T21:50:58.188Z,97801.05
2019-06-26T21:53:27.762Z,97798.84
2019-06-26T21:55:57.379Z,97795.08
2019-06-26T21:58:26.907Z,97803.93
2019-06-26T22:00:56.542Z,97800.55
2019-06-26T22:03:26.186Z,97809.13
2019-06-26T22:05:55.906Z,97803.62
2019-06-26T22:08:25.503Z,97796.41
2019-06-26T22:10:55.111Z,97804.00
2019-06-26T22:13:24.621Z,97805.36
2019-06-26T22:15:54.266Z,97808.22
2019-06-26T22:18:23.920Z,97804.61
2019-06-26T22:20:53.533Z,97801.42
2019-06-26T22:23:23.093Z,97805.87
2019-06-26T22:25:52.755Z,97805.66
2019-06-26T22:28:22.447Z,97809.87
2019-06-26T22:30:52.136Z,97809.12
2019-06-26T22:33:21.747Z,97803.42
2019-06-26T22:35:51.391Z,97803.05
2019-06-26T22:38:22.649Z,97804.16
2019-06-26T22:40:52.399Z,97800.69
2019-06-26T22:43:21.994Z,97799.34
2019-06-26T22:45:51.683Z,97800.23
2019-06-26T22:48:21.350Z,97798.31
2019-06-26T22:50:51.044Z,97794.96
2019-06-26T22:53:20.729Z,97791.55
2019-06-26T22:56:06.410Z,97797.33
2019-06-26T22:58:22.012Z,97799.29
2019-06-26T23:00:51.637Z,97795.66
2019-06-26T23:03:21.297Z,97800.02
2019-06-26T23:05:50.958Z,97796.92
2019-06-26T23:08:20.495Z,97801.65
2019-06-26T23:10:50.053Z,97802.86
2019-06-26T23:13:19.735Z,97801.11
2019-06-26T23:15:49.711Z,97797.45
2019-06-26T23:18:19.487Z,97798.39
2019-06-26T23:20:49.201Z,97793.28
2019-06-26T23:23:18.926Z,97795.68
2019-06-26T23:25:48.554Z,97793.57
2019-06-26T23:28:18.109Z,97789.56
2019-06-26T23:30:47.737Z,97790.78
2019-06-26T23:33:17.309Z,97787.64
2019-06-26T23:35:46.957Z,97783.97
2019-06-26T23:38:16.600Z,97789.08
2019-06-26T23:40:46.223Z,97788.43
2019-06-26T23:43:15.866Z,97785.59
2019-06-26T23:45:45.405Z,97786.25
2019-06-26T23:48:14.975Z,97782.72
2019-06-26T23:50:44.694Z,97782.81
2019-06-26T23:53:14.319Z,97776.79
2019-06-26T23:55:43.956Z,97773.91
2019-06-26T23:58:13.635Z,97772.05
